Time;durP1;ratioP1;P1;durP2;ratioP2;P2;SDS_P1;SDS_P2;PMS_P1;PMS_P2;Temp;Humidity;BMP_temperature;BMP_pressure;BME280_temperature;BME280_humidity;BME280_pressure;Samples;Min_cycle;Max_cycle;Signal;HPM_P1;HPM_P2
2020/12/30 00:01:23;;;;;;;12.30;6.90;;;;;;;10.15;71.40;94448.59;4999418;28;20817;-85
2020/12/30 00:03:49;;;;;;;8.30;6.37;;;;;;;10.11;71.28;94455.03;4998832;28;20864;-84
2020/12/30 00:06:17;;;;;;;10.97;7.33;;;;;;;9.98;72.24;94449.25;4998703;28;20453;-84
2020/12/30 00:08:43;;;;;;;9.73;7.10;;;;;;;10.00;72.36;94452.56;5000065;28;20505;-85
2020/12/30 00:11:10;;;;;;;8.93;6.17;;;;;;;10.09;71.94;94443.03;4998598;28;20454;-84
2020/12/30 00:13:37;;;;;;;9.10;6.37;;;;;;;10.10;71.78;94444.69;4998396;28;20462;-84
2020/12/30 00:16:04;;;;;;;6.30;5.70;;;;;;;10.07;71.46;94456.28;5002767;28;20454;-84
2020/12/30 00:18:31;;;;;;;8.40;6.60;;;;;;;10.05;71.72;94465.25;5003672;28;20943;-84
2020/12/30 00:20:57;;;;;;;8.23;5.77;;;;;;;9.94;71.68;94464.44;5004246;28;20509;-85
2020/12/30 00:23:24;;;;;;;8.77;5.63;;;;;;;9.97;71.92;94475.59;5003803;28;20993;-85
2020/12/30 00:25:51;;;;;;;10.07;6.20;;;;;;;9.94;71.92;94471.47;4943355;29;20452;-86
2020/12/30 00:28:18;;;;;;;7.27;6.07;;;;;;;9.98;71.95;94474.63;4909995;29;20461;-85
2020/12/30 00:30:46;;;;;;;8.87;6.73;;;;;;;9.99;72.20;94481.53;4942593;29;20460;-85
2020/12/30 00:33:14;;;;;;;8.30;5.90;;;;;;;10.01;71.81;94479.59;4926250;29;20452;-83
2020/12/30 00:35:40;;;;;;;11.63;7.30;;;;;;;9.96;71.64;94472.16;4942718;29;20544;-83
2020/12/30 00:38:07;;;;;;;21.17;8.50;;;;;;;9.75;72.32;94463.56;4941895;29;20467;-84
2020/12/30 00:40:33;;;;;;;7.40;6.60;;;;;;;9.74;72.63;94475.00;4940185;29;20504;-85
2020/12/30 00:43:00;;;;;;;7.00;6.30;;;;;;;9.71;72.69;94473.50;4939220;29;20490;-84
2020/12/30 00:45:26;;;;;;;9.33;6.67;;;;;;;9.74;72.42;94465.38;4937671;29;20459;-85
2020/12/30 00:47:52;;;;;;;11.40;8.60;;;;;;;9.76;71.94;94466.06;4938168;29;20458;-85
2020/12/30 00:50:20;;;;;;;11.17;7.10;;;;;;;9.78;72.06;94464.13;4965763;28;20837;-85
2020/12/30 00:52:49;;;;;;;12.17;7.30;;;;;;;9.82;71.82;94473.38;5000260;28;20461;-84
2020/12/30 00:55:18;;;;;;;8.83;7.37;;;;;;;9.86;71.88;94476.56;5001756;28;20464;-84
2020/12/30 00:57:46;;;;;;;9.83;6.80;;;;;;;9.83;71.89;94475.06;5011218;28;20442;-84
2020/12/30 01:00:12;;;;;;;12.33;7.77;;;;;;;9.86;71.55;94472.16;5008944;28;20510;-86
2020/12/30 01:02:39;;;;;;;11.47;8.30;;;;;;;9.89;71.47;94466.63;4997956;28;20458;-84
2020/12/30 01:05:05;;;;;;;12.40;8.23;;;;;;;9.94;71.52;94474.91;4996718;28;20454;-84
2020/12/30 01:07:33;;;;;;;15.77;7.43;;;;;;;9.98;71.29;94458.91;4962751;28;20547;-84
2020/12/30 01:09:59;;;;;;;11.37;8.00;;;;;;;10.00;70.24;94456.97;4996683;28;20459;-84
2020/12/30 01:12:25;;;;;;;9.50;7.60;;;;;;;10.00;70.52;94459.59;4996956;28;20457;-83
2020/12/30 01:14:52;;;;;;;8.87;7.60;;;;;;;9.94;70.41;94458.38;4996991;28;20977;-83
2020/12/30 01:17:18;;;;;;;11.07;8.17;;;;;;;9.93;70.75;94456.72;4996633;28;20447;-84
2020/12/30 01:19:45;;;;;;;10.07;7.80;;;;;;;9.92;70.57;94448.03;5001468;28;20498;-85
2020/12/30 01:22:11;;;;;;;14.10;8.30;;;;;;;9.92;70.42;94458.50;4998657;28;20821;-85
2020/12/30 01:24:39;;;;;;;11.70;7.90;;;;;;;9.94;70.65;94467.06;4999832;28;20457;-84
2020/12/30 01:27:05;;;;;;;10.73;7.90;;;;;;;9.94;70.58;94446.09;4997874;28;20467;-84
2020/12/30 01:29:35;;;;;;;15.30;8.53;;;;;;;9.98;70.09;94456.28;4999471;28;20933;-85
2020/12/30 01:32:02;;;;;;;11.27;8.53;;;;;;;9.95;70.00;94444.28;4998276;28;20457;-86
2020/12/30 01:34:28;;;;;;;9.80;7.20;;;;;;;9.87;70.51;94442.38;4996358;28;20438;-85
2020/12/30 01:36:55;;;;;;;9.77;8.37;;;;;;;9.84;70.75;94431.34;4996682;28;20846;-85
2020/12/30 01:39:22;;;;;;;7.77;7.00;;;;;;;9.82;70.36;94426.19;4996256;28;20461;-85
2020/12/30 01:41:51;;;;;;;11.70;7.90;;;;;;;9.75;70.87;94426.88;4996526;28;20492;-86
2020/12/30 01:44:18;;;;;;;8.80;7.50;;;;;;;9.71;70.56;94438.63;4996294;28;20438;-85
2020/12/30 01:46:46;;;;;;;10.10;8.33;;;;;;;9.63;71.34;94429.66;4996532;28;20458;-86
2020/12/30 01:49:13;;;;;;;10.90;7.87;;;;;;;9.65;71.08;94434.75;4996785;28;20573;-85
2020/12/30 01:51:41;;;;;;;9.83;8.70;;;;;;;9.45;71.17;94444.34;4996164;28;20469;-85
2020/12/30 01:54:10;;;;;;;12.23;8.50;;;;;;;9.36;72.60;94442.53;4996289;28;20437;-85
2020/12/30 01:56:36;;;;;;;16.93;7.73;;;;;;;9.28;73.13;94435.38;4996421;28;20442;-85
2020/12/30 01:59:07;;;;;;;16.83;9.03;;;;;;;9.27;71.95;94436.31;4995996;28;20492;-85
2020/12/30 02:01:36;;;;;;;8.83;7.37;;;;;;;9.29;73.24;94420.47;4996189;28;20445;-85
2020/12/30 02:04:05;;;;;;;10.53;7.80;;;;;;;9.36;73.00;94412.91;4995541;28;20522;-84
2020/12/30 02:06:32;;;;;;;10.80;8.63;;;;;;;9.37;72.74;94404.91;4996430;28;20504;-85
2020/12/30 02:08:59;;;;;;;19.40;8.77;;;;;;;9.45;72.50;94412.91;4996112;28;20450;-85
2020/12/30 02:11:27;;;;;;;12.77;8.27;;;;;;;9.40;72.05;94420.34;4995993;28;20453;-85
2020/12/30 02:14:04;;;;;;;9.63;7.40;;;;;;;9.25;72.35;94409.44;4996179;28;20444;-85
2020/12/30 02:16:32;;;;;;;8.80;7.43;;;;;;;9.32;71.91;94421.03;4996516;28;20442;-85
2020/12/30 02:18:59;;;;;;;12.20;8.30;;;;;;;9.31;72.45;94402.84;4996052;28;20452;-85
2020/12/30 02:21:25;;;;;;;10.33;8.00;;;;;;;9.32;71.96;94394.03;4995139;28;20478;-85
2020/12/30 02:23:55;;;;;;;11.10;8.70;;;;;;;9.27;72.37;94402.28;4995426;28;20457;-85
2020/12/30 02:26:22;;;;;;;12.30;8.60;;;;;;;9.13;72.86;94392.19;4995648;28;20787;-85
2020/12/30 02:28:48;;;;;;;13.30;8.10;;;;;;;9.20;72.69;94397.69;4995294;28;20452;-85
2020/12/30 02:31:15;;;;;;;16.77;8.50;;;;;;;9.14;73.79;94395.63;4995321;28;20450;-85
2020/12/30 02:33:41;;;;;;;12.13;9.00;;;;;;;9.12;73.38;94393.13;4995069;28;20456;-85
2020/12/30 02:36:08;;;;;;;10.80;7.83;;;;;;;9.15;73.15;94392.03;4994753;28;20503;-85
2020/12/30 02:38:34;;;;;;;11.50;7.73;;;;;;;9.03;73.88;94387.88;4994540;28;20454;-85
2020/12/30 02:41:01;;;;;;;9.57;7.57;;;;;;;8.99;73.84;94400.41;4994773;28;20508;-85
2020/12/30 02:43:28;;;;;;;8.00;6.70;;;;;;;8.90;74.33;94399.41;4995037;28;20789;-86
2020/12/30 02:45:55;;;;;;;12.63;7.87;;;;;;;9.02;74.18;94387.06;4994551;28;20449;-85
2020/12/30 02:48:21;;;;;;;9.60;6.63;;;;;;;9.08;73.83;94398.78;4994764;28;21008;-85
2020/12/30 02:50:48;;;;;;;9.47;7.10;;;;;;;9.14;73.25;94395.63;4994674;28;20499;-85
2020/12/30 02:53:14;;;;;;;15.13;9.57;;;;;;;8.79;74.02;94404.75;4994899;28;20536;-85
2020/12/30 02:55:41;;;;;;;10.27;8.40;;;;;;;8.56;74.89;94408.47;4995010;28;20466;-85
2020/12/30 02:58:07;;;;;;;15.43;9.13;;;;;;;8.57;75.08;94402.28;4994870;28;20527;-86
2020/12/30 03:00:35;;;;;;;10.43;8.50;;;;;;;8.71;74.84;94401.13;4994685;28;20863;-86
2020/12/30 03:03:01;;;;;;;14.03;7.90;;;;;;;8.78;74.54;94400.47;4994237;28;20449;-85
2020/12/30 03:05:28;;;;;;;14.33;9.90;;;;;;;8.89;74.21;94408.22;4994361;28;20461;-85
2020/12/30 03:07:54;;;;;;;12.67;9.00;;;;;;;8.89;74.53;94402.16;4994043;28;20441;-85
2020/12/30 03:10:21;;;;;;;9.20;7.47;;;;;;;8.86;74.16;94391.94;4993999;28;20472;-84
2020/12/30 03:12:47;;;;;;;11.07;7.97;;;;;;;8.91;74.14;94384.53;4993846;28;20449;-85
2020/12/30 03:15:14;;;;;;;12.00;7.07;;;;;;;8.91;73.95;94389.75;4994151;28;20820;-85
2020/12/30 03:17:41;;;;;;;10.47;6.90;;;;;;;8.95;73.84;94378.06;4994109;28;20457;-85
2020/12/30 03:20:08;;;;;;;7.57;6.27;;;;;;;8.96;73.86;94382.34;4994247;28;20473;-85
2020/12/30 03:22:34;;;;;;;9.90;7.47;;;;;;;8.92;74.25;94387.00;4994706;28;20513;-85
2020/12/30 03:25:00;;;;;;;9.37;7.03;;;;;;;8.99;73.96;94377.69;4994421;28;20475;-85
2020/12/30 03:27:27;;;;;;;16.50;8.10;;;;;;;8.92;74.29;94386.19;4994525;28;20452;-85
2020/12/30 03:29:53;;;;;;;12.07;8.40;;;;;;;8.98;73.47;94386.50;4994490;28;20464;-85
2020/12/30 03:32:20;;;;;;;20.30;11.33;;;;;;;8.96;74.24;94383.19;4994143;28;20514;-85
2020/12/30 03:34:47;;;;;;;15.23;10.17;;;;;;;8.93;73.95;94385.22;4993903;28;20492;-85
2020/12/30 03:37:13;;;;;;;17.13;10.97;;;;;;;8.96;73.73;94382.34;4993326;28;20441;-86
2020/12/30 03:39:40;;;;;;;18.63;10.90;;;;;;;8.93;74.05;94369.53;4993485;28;20970;-85
2020/12/30 03:42:06;;;;;;;15.77;10.50;;;;;;;8.97;74.05;94384.03;4993520;28;20969;-85
2020/12/30 03:44:33;;;;;;;11.03;8.67;;;;;;;8.95;73.99;94380.69;4993565;28;20473;-85
2020/12/30 03:46:59;;;;;;;9.43;8.00;;;;;;;8.98;73.61;94372.59;4993564;28;21004;-85
2020/12/30 03:49:26;;;;;;;7.80;6.90;;;;;;;8.97;73.34;94363.09;4993941;28;20452;-85
2020/12/30 03:51:54;;;;;;;11.60;8.60;;;;;;;9.06;73.43;94362.28;4993791;28;20987;-85
2020/12/30 03:54:20;;;;;;;11.43;8.80;;;;;;;9.11;73.18;94352.22;4993784;28;20481;-85
2020/12/30 03:56:47;;;;;;;15.73;8.00;;;;;;;9.05;72.85;94349.31;4993409;28;20450;-85
2020/12/30 03:59:13;;;;;;;10.53;7.33;;;;;;;8.99;73.22;94366.41;4994095;28;20493;-85
2020/12/30 04:01:40;;;;;;;8.50;7.23;;;;;;;9.01;73.10;94364.47;4993704;28;20496;-85
2020/12/30 04:04:06;;;;;;;11.67;7.43;;;;;;;8.95;73.58;94364.97;4993618;28;20504;-85
2020/12/30 04:06:33;;;;;;;9.90;7.23;;;;;;;8.93;73.39;94369.53;4959204;28;20457;-85
2020/12/30 04:09:00;;;;;;;11.10;7.50;;;;;;;8.89;73.50;94360.28;4994000;28;20471;-85
2020/12/30 04:11:27;;;;;;;11.70;7.57;;;;;;;9.00;72.82;94366.25;4994161;28;20450;-85
2020/12/30 04:13:53;;;;;;;9.80;7.07;;;;;;;9.03;72.47;94373.00;4993741;28;20454;-85
2020/12/30 04:16:23;;;;;;;9.73;6.37;;;;;;;9.04;72.52;94361.59;4993871;28;20449;-85
2020/12/30 04:18:50;;;;;;;8.43;5.33;;;;;;;9.04;72.39;94374.66;4959804;28;20453;-85
2020/12/30 04:21:20;;;;;;;11.43;6.83;;;;;;;9.14;72.10;94370.28;4993587;28;20516;-86
2020/12/30 04:23:47;;;;;;;6.87;5.50;;;;;;;9.13;71.99;94363.38;4993880;28;20889;-85
2020/12/30 04:26:14;;;;;;;9.10;5.57;;;;;;;9.21;71.74;94373.19;4994017;28;20541;-85
2020/12/30 04:28:41;;;;;;;5.60;4.97;;;;;;;9.26;72.10;94361.38;4994421;28;20459;-85
2020/12/30 04:31:09;;;;;;;7.93;5.33;;;;;;;9.36;71.46;94365.78;4993640;28;20533;-84
2020/12/30 04:33:36;;;;;;;6.13;5.07;;;;;;;9.36;71.32;94368.41;4993507;28;20456;-85
2020/12/30 04:36:03;;;;;;;6.00;5.27;;;;;;;9.43;70.86;94374.75;4994049;28;20442;-85
2020/12/30 04:38:31;;;;;;;9.37;5.27;;;;;;;9.48;70.77;94377.78;4993460;28;20441;-85
2020/12/30 04:40:59;;;;;;;5.57;4.93;;;;;;;9.55;71.02;94360.56;4993287;28;20894;-85
2020/12/30 04:43:28;;;;;;;6.20;4.80;;;;;;;9.59;70.09;94367.19;4993551;28;20452;-85
2020/12/30 04:45:56;;;;;;;7.00;4.97;;;;;;;9.39;70.06;94358.47;4993121;28;20830;-86
2020/12/30 04:48:22;;;;;;;17.37;10.10;;;;;;;8.98;72.07;94367.34;4993607;28;20465;-85
2020/12/30 04:50:49;;;;;;;31.63;12.23;;;;;;;9.07;72.07;94384.88;4992956;28;20437;-85
2020/12/30 04:53:15;;;;;;;15.73;6.77;;;;;;;9.12;72.16;94369.59;4993461;28;20879;-85
2020/12/30 04:55:42;;;;;;;7.03;5.30;;;;;;;8.90;73.17;94362.78;4994056;28;20814;-85
2020/12/30 04:58:09;;;;;;;9.47;6.10;;;;;;;9.03;72.81;94369.56;4993735;28;20962;-85
2020/12/30 05:00:39;;;;;;;9.17;6.30;;;;;;;9.11;72.73;94367.94;4993828;28;20953;-85
2020/12/30 05:03:07;;;;;;;10.00;5.97;;;;;;;9.17;72.13;94374.41;4997025;28;20445;-85
2020/12/30 05:05:38;;;;;;;7.33;5.60;;;;;;;9.28;71.40;94380.38;4996738;28;20960;-85
2020/12/30 05:08:07;;;;;;;17.77;8.97;;;;;;;9.32;71.69;94378.31;4996935;28;20456;-85
2020/12/30 05:10:38;;;;;;;12.00;7.67;;;;;;;9.28;71.55;94387.41;4996172;28;20443;-85
2020/12/30 05:13:04;;;;;;;12.97;7.27;;;;;;;9.21;72.04;94381.84;4996210;28;20461;-85
2020/12/30 05:15:31;;;;;;;7.20;5.57;;;;;;;9.15;71.93;94374.56;4996987;28;20465;-85
2020/12/30 05:17:58;;;;;;;5.73;4.30;;;;;;;9.08;72.27;94385.69;4996746;28;20797;-85
2020/12/30 05:20:25;;;;;;;9.80;4.23;;;;;;;9.10;71.99;94373.31;4996383;28;20494;-85
2020/12/30 05:22:54;;;;;;;6.00;4.40;;;;;;;9.05;72.42;94365.03;4996365;28;20447;-85
2020/12/30 05:25:26;;;;;;;7.30;5.03;;;;;;;9.09;72.39;94367.25;4999639;28;20441;-85
2020/12/30 05:27:52;;;;;;;5.77;4.93;;;;;;;9.18;71.81;94365.59;5011576;28;20965;-84
2020/12/30 05:30:22;;;;;;;5.77;4.60;;;;;;;9.25;71.92;94364.09;4997559;28;20448;-85
2020/12/30 05:32:52;;;;;;;6.10;4.60;;;;;;;9.20;71.87;94356.66;4981003;28;20448;-84
2020/12/30 05:35:20;;;;;;;9.53;6.97;;;;;;;9.25;71.54;94356.22;5016416;28;20452;-84
2020/12/30 05:37:47;;;;;;;26.50;13.83;;;;;;;9.35;71.04;94351.88;5016468;28;20502;-84
2020/12/30 05:40:21;;;;;;;12.87;8.03;;;;;;;9.34;71.42;94347.59;5016681;28;20572;-84
2020/12/30 05:42:48;;;;;;;11.50;5.20;;;;;;;9.31;71.40;94340.84;5016606;28;20464;-85
2020/12/30 05:45:18;;;;;;;4.73;4.17;;;;;;;9.32;71.41;94341.66;5016626;28;20440;-84
2020/12/30 05:47:45;;;;;;;7.07;5.40;;;;;;;9.25;71.61;94325.69;5015991;28;20451;-85
2020/12/30 05:50:12;;;;;;;11.07;5.50;;;;;;;9.08;72.17;94333.34;5016268;28;20446;-84
2020/12/30 05:52:40;;;;;;;5.17;4.57;;;;;;;9.07;72.62;94343.00;5015540;28;20475;-85
2020/12/30 05:55:10;;;;;;;8.80;5.27;;;;;;;9.08;72.29;94343.81;5015630;28;20463;-85
2020/12/30 05:57:37;;;;;;;7.77;5.30;;;;;;;9.05;72.73;94339.69;5016750;28;20507;-85
2020/12/30 06:00:06;;;;;;;7.80;5.20;;;;;;;9.06;72.98;94345.75;5007192;28;21059;-86
2020/12/30 06:02:33;;;;;;;8.70;5.20;;;;;;;9.08;73.69;94334.19;4997032;28;20446;-89
2020/12/30 06:05:10;;;;;;;6.90;5.13;;;;;;;9.07;73.00;94340.38;4996698;28;20476;-91
2020/12/30 06:07:38;;;;;;;8.70;5.13;;;;;;;9.04;73.21;94345.06;4995347;28;20437;-83
2020/12/30 06:10:07;;;;;;;7.80;5.37;;;;;;;9.10;72.73;94352.38;4995124;28;20533;-82
2020/12/30 06:12:39;;;;;;;9.40;5.90;;;;;;;8.96;73.26;94351.78;4993898;28;20488;-80
2020/12/30 06:15:06;;;;;;;9.63;6.53;;;;;;;9.04;72.36;94350.28;4994959;28;20446;-82
2020/12/30 06:17:32;;;;;;;12.37;7.10;;;;;;;9.20;72.05;94372.34;4995053;28;20444;-85
2020/12/30 06:19:59;;;;;;;11.37;6.70;;;;;;;9.29;72.03;94366.34;4995098;28;20556;-86
2020/12/30 06:22:27;;;;;;;9.13;6.40;;;;;;;9.38;71.55;94354.22;4994821;28;20957;-83
2020/12/30 06:24:55;;;;;;;11.73;5.60;;;;;;;9.38;71.32;94340.28;4996391;28;20448;-82
2020/12/30 06:27:24;;;;;;;6.70;6.10;;;;;;;9.34;71.79;94336.28;5014355;28;20450;-82
2020/12/30 06:29:53;;;;;;;7.27;5.50;;;;;;;9.28;71.46;94335.88;5013579;28;20445;-83
2020/12/30 06:32:28;;;;;;;13.23;5.23;;;;;;;9.27;71.82;94349.94;4995459;28;20460;-81
2020/12/30 06:34:55;;;;;;;5.30;4.10;;;;;;;9.27;71.81;94344.69;5014191;28;20462;-83
2020/12/30 06:37:32;;;;;;;6.90;4.07;;;;;;;9.40;71.26;94354.06;5013639;28;20460;-81
2020/12/30 06:40:27;;;;;;;7.27;4.47;;;;;;;9.42;71.56;94346.91;4995515;28;20488;-82
2020/12/30 06:42:56;;;;;;;9.53;4.60;;;;;;;9.51;70.58;94362.63;4953223;29;20599;-82
2020/12/30 06:45:48;;;;;;;7.47;4.73;;;;;;;9.62;70.73;94372.16;4952763;29;20463;-82
2020/12/30 06:48:15;;;;;;;6.40;4.20;;;;;;;9.71;69.98;94378.34;4953428;29;20456;-81
2020/12/30 06:50:41;;;;;;;5.93;3.70;;;;;;;9.83;70.10;94395.59;4952763;29;20456;-82
2020/12/30 06:53:26;;;;;;;5.47;4.10;;;;;;;9.98;69.34;94396.00;4952889;29;20459;-82
2020/12/30 06:55:52;;;;;;;57.17;14.83;;;;;;;9.87;69.63;94392.56;4953017;29;20480;-83
2020/12/30 06:58:48;;;;;;;22.93;10.77;;;;;;;10.02;68.78;94407.88;4952894;28;20480;-82
2020/12/30 07:01:15;;;;;;;10.07;3.20;;;;;;;9.86;69.08;94390.91;4952669;29;20492;-82
2020/12/30 07:03:42;;;;;;;8.30;4.93;;;;;;;9.92;69.63;94400.03;4952881;29;20451;-83
2020/12/30 07:06:32;;;;;;;26.30;12.80;;;;;;;10.08;69.45;94410.75;4952632;29;20453;-82
2020/12/30 07:09:00;;;;;;;22.93;10.67;;;;;;;10.20;69.62;94424.56;4952799;29;20459;-83
2020/12/30 07:11:41;;;;;;;26.80;14.70;;;;;;;10.21;68.83;94431.50;4952792;29;20463;-83
2020/12/30 07:14:09;;;;;;;19.10;10.07;;;;;;;10.24;68.41;94403.19;4952347;29;20487;-81
2020/12/30 07:16:36;;;;;;;15.13;7.00;;;;;;;10.31;68.86;94434.94;4952545;29;20555;-81
2020/12/30 07:19:09;;;;;;;16.90;6.57;;;;;;;10.35;68.38;94431.06;4994864;28;20474;-81
2020/12/30 07:21:48;;;;;;;9.07;5.83;;;;;;;10.27;68.38;94444.03;5012899;28;20497;-81
2020/12/30 07:24:20;;;;;;;10.93;7.03;;;;;;;10.30;69.53;94427.19;5012605;28;20491;-88
2020/12/30 07:26:53;;;;;;;9.37;6.20;;;;;;;10.41;69.72;94441.00;5012980;28;20454;-81
2020/12/30 07:29:20;;;;;;;14.63;6.77;;;;;;;10.32;69.83;94436.56;5012569;28;20496;-81
2020/12/30 07:31:49;;;;;;;24.87;8.70;;;;;;;10.31;69.92;94434.94;5012995;28;20457;-82
2020/12/30 07:34:16;;;;;;;17.60;8.87;;;;;;;10.34;69.73;94439.06;5013487;28;20533;-87
2020/12/30 07:36:45;;;;;;;17.47;9.10;;;;;;;10.36;69.77;94424.84;5013183;28;20828;-80
2020/12/30 07:39:11;;;;;;;26.97;13.87;;;;;;;10.41;69.73;94434.94;5012805;28;20456;-81
2020/12/30 07:41:37;;;;;;;34.53;20.97;;;;;;;10.44;69.94;94429.41;5013022;28;20494;-83
2020/12/30 07:44:05;;;;;;;32.57;18.67;;;;;;;10.54;76.37;94428.41;4978643;28;20449;-80
2020/12/30 07:46:32;;;;;;;29.63;17.13;;;;;;;10.58;75.10;94422.88;4978418;28;20441;-80
2020/12/30 07:49:09;;;;;;;38.73;17.30;;;;;;;10.70;73.11;94432.25;5012835;28;20451;-82
2020/12/30 07:51:36;;;;;;;16.33;9.90;;;;;;;10.73;72.12;94437.22;5014523;28;20457;-83
2020/12/30 07:54:02;;;;;;;14.20;6.67;;;;;;;10.66;69.27;94442.19;5013069;28;20452;-84
2020/12/30 07:56:29;;;;;;;19.60;12.73;;;;;;;10.69;69.65;94422.69;5014193;28;20443;-83
2020/12/30 07:58:55;;;;;;;30.20;15.70;;;;;;;10.71;69.45;94434.75;4978256;28;20478;-80
2020/12/30 08:01:21;;;;;;;13.90;8.83;;;;;;;10.67;68.23;94435.97;5012174;28;21076;-82
2020/12/30 08:03:49;;;;;;;10.07;6.10;;;;;;;10.71;67.65;94440.00;5012637;28;20478;-83
2020/12/30 08:06:17;;;;;;;9.23;6.20;;;;;;;10.62;66.60;94435.56;5012797;28;20439;-81
2020/12/30 08:08:44;;;;;;;17.77;7.30;;;;;;;10.59;67.95;94461.25;5013259;28;20944;-83
2020/12/30 08:11:11;;;;;;;11.70;7.50;;;;;;;10.30;67.79;94417.53;5012231;28;20484;-82
2020/12/30 08:13:39;;;;;;;13.13;8.30;;;;;;;10.19;69.25;94433.41;5012509;28;20446;-81
2020/12/30 08:16:10;;;;;;;23.23;9.30;;;;;;;10.28;69.02;94452.75;5012373;28;20499;-78
2020/12/30 08:18:37;;;;;;;8.40;6.10;;;;;;;10.29;69.35;94452.59;5005797;28;20609;-80
2020/12/30 08:21:11;;;;;;;14.40;6.43;;;;;;;10.43;68.99;94452.19;5011778;28;20493;-80
2020/12/30 08:23:37;;;;;;;12.60;7.83;;;;;;;10.47;68.38;94440.44;4997396;28;20447;-81
2020/12/30 08:26:04;;;;;;;9.27;5.83;;;;;;;10.55;67.64;94447.59;5010873;28;20982;-80
2020/12/30 08:28:32;;;;;;;9.10;5.63;;;;;;;10.66;67.60;94438.72;5012285;28;20447;-81
2020/12/30 08:31:03;;;;;;;6.07;4.73;;;;;;;10.66;66.87;94433.47;5012043;28;20524;-80
2020/12/30 08:33:31;;;;;;;12.53;4.90;;;;;;;10.82;66.80;94433.72;5011892;28;20482;-80
2020/12/30 08:36:21;;;;;;;15.90;5.70;;;;;;;10.91;66.77;94430.25;5012931;28;20872;-80
2020/12/30 08:38:50;;;;;;;3.93;3.63;;;;;;;11.02;66.02;94432.72;5013678;28;20477;-79
2020/12/30 08:41:23;;;;;;;9.70;4.63;;;;;;;11.08;67.13;94432.13;5014921;28;20545;-78
2020/12/30 08:43:56;;;;;;;7.37;4.50;;;;;;;11.09;66.22;94432.94;4997066;28;20994;-81
2020/12/30 08:46:25;;;;;;;8.33;3.80;;;;;;;11.21;66.54;94412.56;5015873;28;20443;-81
2020/12/30 08:48:53;;;;;;;4.80;3.90;;;;;;;11.25;67.11;94420.00;5016123;28;20439;-80
2020/12/30 08:51:30;;;;;;;9.70;4.80;;;;;;;11.35;67.48;94415.56;5015659;28;20457;-79
2020/12/30 08:53:56;;;;;;;13.80;6.43;;;;;;;11.39;65.37;94397.69;5015204;28;20821;-79
2020/12/30 08:56:23;;;;;;;14.93;7.93;;;;;;;11.56;67.68;94396.88;5015449;28;20446;-80
2020/12/30 08:58:56;;;;;;;18.90;8.70;;;;;;;11.57;64.35;94413.50;5015291;28;20472;-80
2020/12/30 09:01:24;;;;;;;11.63;8.90;;;;;;;11.73;73.26;94388.19;5015311;28;20486;-80
2020/12/30 09:03:50;;;;;;;13.70;8.40;;;;;;;11.78;67.63;94401.75;5015308;28;20454;-80
2020/12/30 09:06:28;;;;;;;20.13;9.10;;;;;;;12.01;66.93;94391.63;5015721;28;20466;-80
2020/12/30 09:08:55;;;;;;;18.30;8.47;;;;;;;12.21;70.03;94389.66;5013386;28;20447;-80
2020/12/30 09:11:22;;;;;;;12.73;8.60;;;;;;;12.38;65.83;94390.59;5014513;28;20463;-80
2020/12/30 09:13:48;;;;;;;25.70;9.20;;;;;;;12.55;67.96;94388.91;5011628;28;20439;-80
2020/12/30 09:16:15;;;;;;;26.77;13.10;;;;;;;12.60;62.87;94355.88;5014949;28;20454;-80
2020/12/30 09:18:41;;;;;;;28.10;13.70;;;;;;;12.73;64.55;94370.44;5014785;28;20455;-80
2020/12/30 09:21:25;;;;;;;21.50;11.40;;;;;;;12.78;61.63;94373.44;5015035;28;20540;-80
2020/12/30 09:23:52;;;;;;;18.17;10.00;;;;;;;12.84;63.31;94347.28;5017513;28;20459;-80
2020/12/30 09:26:29;;;;;;;18.73;8.67;;;;;;;13.08;62.48;94380.00;4981340;28;20497;-81
2020/12/30 09:28:55;;;;;;;18.57;7.47;;;;;;;13.26;60.86;94380.75;5015110;28;20449;-80
2020/12/30 09:31:22;;;;;;;9.80;4.67;;;;;;;13.38;61.13;94387.41;5014984;28;20462;-79
2020/12/30 09:33:49;;;;;;;12.90;3.07;;;;;;;13.58;55.49;94358.94;5014747;28;20482;-80
2020/12/30 09:36:15;;;;;;;8.70;3.00;;;;;;;13.73;56.65;94372.34;5015401;28;20439;-81
2020/12/30 09:38:41;;;;;;;13.43;3.23;;;;;;;13.94;54.22;94384.09;5014652;28;20501;-81
2020/12/30 09:41:14;;;;;;;2.80;1.70;;;;;;;14.15;51.23;94354.56;5014493;28;20487;-82
2020/12/30 09:43:47;;;;;;;4.60;2.70;;;;;;;14.37;52.22;94349.63;5014657;28;20450;-81
2020/12/30 09:46:21;;;;;;;7.50;2.47;;;;;;;14.56;52.19;94354.59;4996254;28;20819;-81
2020/12/30 09:48:47;;;;;;;6.93;2.17;;;;;;;14.75;50.41;94362.16;5014292;28;20485;-80
2020/12/30 09:51:17;;;;;;;4.97;2.23;;;;;;;14.98;52.37;94361.41;5014575;28;20457;-80
2020/12/30 09:53:44;;;;;;;6.43;1.93;;;;;;;15.13;48.34;94362.38;5015046;28;20453;-80
2020/12/30 09:56:14;;;;;;;3.00;2.13;;;;;;;15.19;47.41;94329.97;4996236;28;20453;-80
2020/12/30 09:58:40;;;;;;;7.47;3.03;;;;;;;15.34;50.19;94338.00;5014655;28;20481;-80
2020/12/30 10:01:07;;;;;;;5.80;2.90;;;;;;;15.45;51.27;94337.63;4995868;28;20494;-81
2020/12/30 10:03:34;;;;;;;6.00;2.63;;;;;;;15.38;52.83;94342.78;5014548;28;20443;-81
2020/12/30 10:06:00;;;;;;;5.73;2.43;;;;;;;15.45;50.20;94327.03;5014795;28;20445;-81
2020/12/30 10:08:26;;;;;;;8.00;4.03;;;;;;;15.45;51.00;94343.72;5014735;28;20502;-82
2020/12/30 10:10:53;;;;;;;7.27;3.30;;;;;;;15.48;51.32;94337.28;5014022;28;20454;-79
2020/12/30 10:13:20;;;;;;;6.33;4.00;;;;;;;15.50;51.47;94322.88;5014183;28;20501;-80
2020/12/30 10:15:46;;;;;;;10.60;4.10;;;;;;;15.63;51.04;94318.88;5013970;28;20505;-79
2020/12/30 10:18:13;;;;;;;6.47;3.53;;;;;;;15.74;50.56;94315.81;4976138;28;20451;-80
2020/12/30 10:20:39;;;;;;;5.27;2.43;;;;;;;15.80;51.20;94310.66;4994752;28;21054;-79
2020/12/30 10:23:09;;;;;;;8.57;2.03;;;;;;;15.86;50.02;94314.41;4994424;28;20938;-80
2020/12/30 10:25:35;;;;;;;5.77;3.47;;;;;;;15.57;50.50;94315.06;4994554;28;20551;-80
2020/12/30 10:28:01;;;;;;;5.80;2.70;;;;;;;15.40;51.91;94311.69;4994611;28;20515;-80
2020/12/30 10:30:29;;;;;;;11.83;2.97;;;;;;;15.44;51.91;94310.34;4994367;28;20723;-80
2020/12/30 10:32:56;;;;;;;10.73;2.83;;;;;;;15.54;51.47;94314.59;4994035;28;20458;-80
2020/12/30 10:35:23;;;;;;;7.10;3.30;;;;;;;15.50;51.49;94309.66;4994703;28;20454;-82
2020/12/30 10:37:50;;;;;;;8.20;2.70;;;;;;;15.40;51.26;94308.25;4994607;28;20880;-82
2020/12/30 10:40:18;;;;;;;10.60;4.53;;;;;;;15.56;50.78;94302.84;4994223;28;20478;-81
2020/12/30 10:42:44;;;;;;;11.57;2.83;;;;;;;15.71;50.36;94297.66;4993934;28;20459;-79
2020/12/30 10:45:10;;;;;;;5.23;3.03;;;;;;;15.76;49.68;94288.19;4994506;28;20499;-80
2020/12/30 10:47:38;;;;;;;5.17;2.63;;;;;;;15.77;49.66;94289.03;4976355;28;20449;-80
2020/12/30 10:50:04;;;;;;;3.10;2.70;;;;;;;15.78;49.21;94282.72;4975623;28;20958;-80
2020/12/30 10:52:30;;;;;;;4.10;2.10;;;;;;;15.96;49.23;94288.56;5003277;28;20479;-79
2020/12/30 10:54:57;;;;;;;15.83;2.07;;;;;;;16.13;48.84;94299.81;5013312;28;20457;-79
2020/12/30 10:57:23;;;;;;;9.43;3.63;;;;;;;16.21;47.82;94285.72;5013299;28;20508;-79
2020/12/30 10:59:50;;;;;;;8.27;2.37;;;;;;;16.30;47.14;94296.03;5013031;28;20571;-80
2020/12/30 11:02:16;;;;;;;5.77;3.00;;;;;;;16.04;47.10;94292.94;5011789;28;21078;-88
2020/12/30 11:04:44;;;;;;;7.53;3.37;;;;;;;15.87;47.69;94289.59;5008605;28;20540;-79
2020/12/30 11:07:10;;;;;;;8.03;3.33;;;;;;;15.83;47.88;94284.84;5004908;28;20873;-80
2020/12/30 11:09:37;;;;;;;3.77;1.93;;;;;;;15.65;47.58;94279.84;4996578;28;20470;-86
2020/12/30 11:12:03;;;;;;;8.03;3.47;;;;;;;15.44;48.95;94277.81;4996897;28;20508;-81
2020/12/30 11:14:29;;;;;;;2.30;1.97;;;;;;;15.53;48.79;94275.91;4994343;28;20945;-79
2020/12/30 11:16:56;;;;;;;3.30;1.57;;;;;;;15.60;47.68;94276.88;4994039;28;20464;-80
2020/12/30 11:19:22;;;;;;;2.20;1.60;;;;;;;15.65;47.63;94269.28;4993584;28;20456;-80
2020/12/30 11:21:53;;;;;;;6.27;2.27;;;;;;;15.64;47.67;94280.84;4975968;28;20484;-79
2020/12/30 11:24:21;;;;;;;2.43;1.87;;;;;;;15.70;47.89;94272.22;4959713;28;20540;-80
2020/12/30 11:26:48;;;;;;;4.00;2.40;;;;;;;15.73;47.51;94267.38;4993823;28;20535;-82
2020/12/30 11:29:14;;;;;;;5.37;2.40;;;;;;;15.80;47.35;94260.38;4993260;28;20444;-80
2020/12/30 11:31:42;;;;;;;9.07;2.20;;;;;;;15.74;46.91;94260.28;4959807;28;20502;-81
2020/12/30 11:34:08;;;;;;;6.00;1.90;;;;;;;15.72;47.06;94255.16;4993787;28;20485;-80
2020/12/30 11:36:34;;;;;;;3.40;1.80;;;;;;;15.55;47.63;94268.63;4994381;28;20504;-80
2020/12/30 11:39:02;;;;;;;5.03;2.00;;;;;;;15.60;46.84;94256.56;4975287;28;20456;-81